Terminal Aerodrome Forecast
Issued by NWS Mt. Holly, NJ

Home | Current Version | Previous Version | Text Only | Print | Product List | Glossary On
Versions: 1 2 3 4 5 6 7 8 9 10 11 12 13
000
FTUS41 KPHI 282325
TAFTTN
TAF
KTTN 282325Z 2900/2924 22006KT P6SM FEW050
     FM290400 VRB03KT P6SM SCT250
      TEMPO 2908/2911 3SM BR
     FM291200 22006KT P6SM SCT250
     FM291500 22008KT P6SM SCT050 BKN200
     FM292200 19006KT P6SM VCSH FEW030 BKN050=

USA.gov is the U.S. government's official web portal to all federal, state and local government web resources and services.